Bethesda, Kentucky
Current Conditions -  °F | °C
As of 9:56 AM on Saturday 20 Dec 2014 (Local Time) from KEKQ Reporting Station
Overcast Overcast  
Wind Chill: 33°   Ceiling: 5500
Heat Index: 33°   Visibility: 7mi
Dew Point: 27°   Wind: 0mph
Humidity: 79%   Direction: NA
Pressure: 30.29"   Gusts: NA
Location:  36.8129°N, 84.8215°W
Report Text: KEKQ 201456Z AUTO 00000KT 7SM OVC055 01/M03 A3029 RMK AO2 TSNO 53008 60000 T00051027 SNB01E50 P0000 SLP267
Loading
Personal Weather Stations






























Interactive Weather Map New forecast layout! Learn more

10-Day Weather Forecast

Advertisements
Track Severe Weather on mobile